sensor_id;sensor_type;location;lat;lon;timestamp;pressure;altitude;pressure_sealevel;temperature;humidity
73558;BME280;61829;53.286;10.434;2022-08-01T00:01:59;100981.09;;;18.45;89.51
73558;BME280;61829;53.286;10.434;2022-08-01T00:04:25;100978.59;;;18.44;89.83
73558;BME280;61829;53.286;10.434;2022-08-01T00:06:51;100984.88;;;18.44;89.73
73558;BME280;61829;53.286;10.434;2022-08-01T00:09:18;100981.09;;;18.45;89.84
73558;BME280;61829;53.286;10.434;2022-08-01T00:11:44;100980.88;;;18.47;89.71
73558;BME280;61829;53.286;10.434;2022-08-01T00:14:10;100987.16;;;18.47;89.69
73558;BME280;61829;53.286;10.434;2022-08-01T00:16:36;100985.50;;;18.46;89.85
73558;BME280;61829;53.286;10.434;2022-08-01T00:19:03;100992.00;;;18.45;89.47
73558;BME280;61829;53.286;10.434;2022-08-01T00:21:29;100983.59;;;18.47;89.43
73558;BME280;61829;53.286;10.434;2022-08-01T00:23:55;100983.59;;;18.47;89.53
73558;BME280;61829;53.286;10.434;2022-08-01T00:26:21;100987.97;;;18.48;89.26
73558;BME280;61829;53.286;10.434;2022-08-01T00:28:47;100987.75;;;18.49;89.25
73558;BME280;61829;53.286;10.434;2022-08-01T00:31:13;100995.69;;;18.51;89.01
73558;BME280;61829;53.286;10.434;2022-08-01T00:33:39;100987.50;;;18.51;89.15
73558;BME280;61829;53.286;10.434;2022-08-01T00:36:06;100987.03;;;18.54;89.12
73558;BME280;61829;53.286;10.434;2022-08-01T00:38:32;100980.75;;;18.53;89.29
73558;BME280;61829;53.286;10.434;2022-08-01T00:40:58;100980.53;;;18.55;89.26
73558;BME280;61829;53.286;10.434;2022-08-01T00:43:24;100992.03;;;18.57;89.23
73558;BME280;61829;53.286;10.434;2022-08-01T00:45:50;100985.53;;;18.58;89.21
73558;BME280;61829;53.286;10.434;2022-08-01T00:48:16;100987.44;;;18.57;89.22
73558;BME280;61829;53.286;10.434;2022-08-01T00:50:43;100989.91;;;18.59;89.28
73558;BME280;61829;53.286;10.434;2022-08-01T00:53:09;100997.03;;;18.60;89.09
73558;BME280;61829;53.286;10.434;2022-08-01T00:55:35;100995.16;;;18.60;89.24
73558;BME280;61829;53.286;10.434;2022-08-01T00:58:01;100994.31;;;18.60;89.49
73558;BME280;61829;53.286;10.434;2022-08-01T01:00:28;100987.19;;;18.59;89.82
73558;BME280;61829;53.286;10.434;2022-08-01T01:02:54;100991.59;;;18.60;89.41
73558;BME280;61829;53.286;10.434;2022-08-01T01:05:20;100987.19;;;18.59;89.84
73558;BME280;61829;53.286;10.434;2022-08-01T01:07:59;100988.25;;;18.58;89.66
73558;BME280;61829;53.286;10.434;2022-08-01T01:10:42;100986.34;;;18.58;89.63
73558;BME280;61829;53.286;10.434;2022-08-01T01:13:22;100984.44;;;18.59;89.92
73558;BME280;61829;53.286;10.434;2022-08-01T01:15:59;100986.13;;;18.60;89.95
73558;BME280;61829;53.286;10.434;2022-08-01T01:18:32;100988.84;;;18.60;89.96
73558;BME280;61829;53.286;10.434;2022-08-01T01:21:13;100992.41;;;18.60;89.70
73558;BME280;61829;53.286;10.434;2022-08-01T01:27:10;100994.06;;;18.61;89.69
73558;BME280;61829;53.286;10.434;2022-08-01T01:29:56;100991.34;;;18.61;89.76
73558;BME280;61829;53.286;10.434;2022-08-01T01:32:38;100993.00;;;18.62;89.70
73558;BME280;61829;53.286;10.434;2022-08-01T01:35:21;100992.16;;;18.62;89.86
73558;BME280;61829;53.286;10.434;2022-08-01T01:37:50;100991.13;;;18.63;89.96
73558;BME280;61829;53.286;10.434;2022-08-01T01:40:17;100993.00;;;18.62;90.01
73558;BME280;61829;53.286;10.434;2022-08-01T01:42:46;100993.84;;;18.63;89.82
73558;BME280;61829;53.286;10.434;2022-08-01T01:45:15;100993.84;;;18.63;89.71
73558;BME280;61829;53.286;10.434;2022-08-01T01:47:42;100998.22;;;18.64;89.77
73558;BME280;61829;53.286;10.434;2022-08-01T01:50:11;101000.97;;;18.64;89.61
73558;BME280;61829;53.286;10.434;2022-08-01T01:52:40;100992.78;;;18.64;89.55
73558;BME280;61829;53.286;10.434;2022-08-01T01:55:08;100997.16;;;18.65;89.55
73558;BME280;61829;53.286;10.434;2022-08-01T01:57:39;100996.09;;;18.66;89.49
73558;BME280;61829;53.286;10.434;2022-08-01T02:00:07;100988.13;;;18.65;89.38
73558;BME280;61829;53.286;10.434;2022-08-01T02:02:36;100995.28;;;18.66;89.32
73558;BME280;61829;53.286;10.434;2022-08-01T02:05:04;100997.16;;;18.65;89.44
73558;BME280;61829;53.286;10.434;2022-08-01T02:07:35;100991.69;;;18.65;89.85
73558;BME280;61829;53.286;10.434;2022-08-01T02:10:16;100997.75;;;18.67;89.83
73558;BME280;61829;53.286;10.434;2022-08-01T02:13:02;100992.56;;;18.66;89.78
73558;BME280;61829;53.286;10.434;2022-08-01T02:15:40;100996.94;;;18.67;89.89
73558;BME280;61829;53.286;10.434;2022-08-01T02:18:07;100991.47;;;18.67;89.80
73558;BME280;61829;53.286;10.434;2022-08-01T02:20:36;100990.66;;;18.66;89.71
73558;BME280;61829;53.286;10.434;2022-08-01T02:23:11;100989.81;;;18.66;89.73
73558;BME280;61829;53.286;10.434;2022-08-01T02:30:35;101003.09;;;18.62;89.94
73558;BME280;61829;53.286;10.434;2022-08-01T02:35:37;100992.75;;;18.52;89.92
73558;BME280;61829;53.286;10.434;2022-08-01T02:38:06;100998.44;;;18.51;89.83
73558;BME280;61829;53.286;10.434;2022-08-01T02:40:37;101010.41;;;18.50;89.97
73558;BME280;61829;53.286;10.434;2022-08-01T02:43:08;101006.25;;;18.47;89.94
73558;BME280;61829;53.286;10.434;2022-08-01T02:45:37;101002.69;;;18.47;89.92
73558;BME280;61829;53.286;10.434;2022-08-01T02:48:10;101003.78;;;18.46;90.15
73558;BME280;61829;53.286;10.434;2022-08-01T02:50:38;101007.34;;;18.46;89.92
73558;BME280;61829;53.286;10.434;2022-08-01T02:53:06;101006.50;;;18.46;89.67
73558;BME280;61829;53.286;10.434;2022-08-01T02:55:37;101003.16;;;18.44;89.60
73558;BME280;61829;53.286;10.434;2022-08-01T02:58:10;101004.59;;;18.46;89.58
73558;BME280;61829;53.286;10.434;2022-08-01T03:00:38;101002.91;;;18.45;89.45
73558;BME280;61829;53.286;10.434;2022-08-01T03:03:07;101002.56;;;18.42;89.42
73558;BME280;61829;53.286;10.434;2022-08-01T03:05:34;101003.84;;;18.39;89.50
73558;BME280;61829;53.286;10.434;2022-08-01T03:08:01;101015.59;;;18.39;89.20
73558;BME280;61829;53.286;10.434;2022-08-01T03:10:29;101011.22;;;18.38;89.39
73558;BME280;61829;53.286;10.434;2022-08-01T03:12:57;101017.97;;;18.36;89.64
73558;BME280;61829;53.286;10.434;2022-08-01T03:15:26;101026.16;;;18.36;89.34
73558;BME280;61829;53.286;10.434;2022-08-01T03:17:54;101025.31;;;18.35;89.07
73558;BME280;61829;53.286;10.434;2022-08-01T03:20:21;101023.06;;;18.32;88.97
73558;BME280;61829;53.286;10.434;2022-08-01T03:22:51;101024.97;;;18.32;89.01
73558;BME280;61829;53.286;10.434;2022-08-01T03:25:19;101033.38;;;18.30;89.01
73558;BME280;61829;53.286;10.434;2022-08-01T03:27:51;101026.25;;;18.29;89.13
73558;BME280;61829;53.286;10.434;2022-08-01T03:30:22;101033.63;;;18.29;89.01
73558;BME280;61829;53.286;10.434;2022-08-01T03:32:48;101031.72;;;18.29;88.85
73558;BME280;61829;53.286;10.434;2022-08-01T03:35:14;101045.34;;;18.29;88.85
73558;BME280;61829;53.286;10.434;2022-08-01T03:37:52;101036.34;;;18.29;89.10
73558;BME280;61829;53.286;10.434;2022-08-01T03:43:22;101048.53;;;18.26;89.14
73558;BME280;61829;53.286;10.434;2022-08-01T03:45:51;101047.47;;;18.27;89.00
73558;BME280;61829;53.286;10.434;2022-08-01T03:48:22;101046.66;;;18.27;88.94
73558;BME280;61829;53.286;10.434;2022-08-01T03:50:52;101049.13;;;18.28;89.29
73558;BME280;61829;53.286;10.434;2022-08-01T03:53:26;101051.28;;;18.26;89.20
73558;BME280;61829;53.286;10.434;2022-08-01T03:55:55;101048.75;;;18.25;89.37
73558;BME280;61829;53.286;10.434;2022-08-01T03:58:24;101048.53;;;18.26;89.22
73558;BME280;61829;53.286;10.434;2022-08-01T04:00:51;101055.88;;;18.26;89.15
73558;BME280;61829;53.286;10.434;2022-08-01T04:03:18;101055.28;;;18.24;89.06
73558;BME280;61829;53.286;10.434;2022-08-01T04:05:44;101051.94;;;18.22;89.48
73558;BME280;61829;53.286;10.434;2022-08-01T04:08:10;101059.91;;;18.23;89.23
73558;BME280;61829;53.286;10.434;2022-08-01T04:10:36;101057.19;;;18.23;89.27
73558;BME280;61829;53.286;10.434;2022-08-01T04:13:02;101056.34;;;18.23;89.42
73558;BME280;61829;53.286;10.434;2022-08-01T04:15:29;101065.38;;;18.23;89.49
73558;BME280;61829;53.286;10.434;2022-08-01T04:17:54;101066.19;;;18.24;89.42
73558;BME280;61829;53.286;10.434;2022-08-01T04:20:21;101067.50;;;18.21;89.41
73558;BME280;61829;53.286;10.434;2022-08-01T04:22:47;101069.97;;;18.23;89.20
73558;BME280;61829;53.286;10.434;2022-08-01T04:25:30;101071.66;;;18.24;89.39
73558;BME280;61829;53.286;10.434;2022-08-01T04:28:00;101077.13;;;18.24;89.41
73558;BME280;61829;53.286;10.434;2022-08-01T04:30:31;101081.50;;;18.25;89.42
73558;BME280;61829;53.286;10.434;2022-08-01T04:33:01;101083.41;;;18.24;89.50
73558;BME280;61829;53.286;10.434;2022-08-01T04:35:29;101087.19;;;18.23;89.18
73558;BME280;61829;53.286;10.434;2022-08-01T04:37:56;101093.47;;;18.24;89.23
73558;BME280;61829;53.286;10.434;2022-08-01T04:40:25;101089.47;;;18.26;89.36
73558;BME280;61829;53.286;10.434;2022-08-01T04:42:52;101084.00;;;18.26;89.20
73558;BME280;61829;53.286;10.434;2022-08-01T04:45:18;101087.56;;;18.27;89.32
73558;BME280;61829;53.286;10.434;2022-08-01T04:47:45;101089.81;;;18.30;89.21
73558;BME280;61829;53.286;10.434;2022-08-01T04:50:12;101108.09;;;18.29;89.44
73558;BME280;61829;53.286;10.434;2022-08-01T04:52:39;101115.22;;;18.30;89.50
73558;BME280;61829;53.286;10.434;2022-08-01T04:55:08;101110.59;;;18.31;89.44
73558;BME280;61829;53.286;10.434;2022-08-01T04:57:37;101112.28;;;18.32;89.17
73558;BME280;61829;53.286;10.434;2022-08-01T05:00:05;101114.75;;;18.33;89.18
73558;BME280;61829;53.286;10.434;2022-08-01T05:02:32;101110.72;;;18.36;89.46
73558;BME280;61829;53.286;10.434;2022-08-01T05:04:58;101104.19;;;18.37;89.79
73558;BME280;61829;53.286;10.434;2022-08-01T05:07:24;101106.03;;;18.43;89.43
73558;BME280;61829;53.286;10.434;2022-08-01T05:09:51;101106.75;;;18.50;89.51
73558;BME280;61829;53.286;10.434;2022-08-01T05:12:17;101108.00;;;18.54;89.61
73558;BME280;61829;53.286;10.434;2022-08-01T05:14:43;101111.91;;;18.58;89.79
73558;BME280;61829;53.286;10.434;2022-08-01T05:17:10;101111.44;;;18.61;89.32
73558;BME280;61829;53.286;10.434;2022-08-01T05:19:37;101117.50;;;18.63;89.46
73558;BME280;61829;53.286;10.434;2022-08-01T05:22:06;101109.53;;;18.62;88.62
73558;BME280;61829;53.286;10.434;2022-08-01T05:24:40;101108.50;;;18.63;88.29
73558;BME280;61829;53.286;10.434;2022-08-01T05:27:06;101117.25;;;18.65;88.29
73558;BME280;61829;53.286;10.434;2022-08-01T05:29:34;101115.75;;;18.69;88.69
73558;BME280;61829;53.286;10.434;2022-08-01T05:31:59;101122.41;;;18.73;88.50
73558;BME280;61829;53.286;10.434;2022-08-01T05:34:25;101122.22;;;18.75;88.52
73558;BME280;61829;53.286;10.434;2022-08-01T05:36:52;101115.69;;;18.76;88.31
73558;BME280;61829;53.286;10.434;2022-08-01T05:39:18;101120.47;;;18.80;88.35
73558;BME280;61829;53.286;10.434;2022-08-01T05:41:44;101127.94;;;18.85;88.12
73558;BME280;61829;53.286;10.434;2022-08-01T05:44:11;101120.34;;;18.87;88.13
73558;BME280;61829;53.286;10.434;2022-08-01T05:46:37;101127.72;;;18.87;87.58
73558;BME280;61829;53.286;10.434;2022-08-01T05:49:04;101137.09;;;18.91;87.68
73558;BME280;61829;53.286;10.434;2022-08-01T05:51:31;101140.22;;;18.94;87.27
73558;BME280;61829;53.286;10.434;2022-08-01T05:53:57;101141.66;;;18.97;87.02
73558;BME280;61829;53.286;10.434;2022-08-01T05:56:23;101135.94;;;18.98;86.75
73558;BME280;61829;53.286;10.434;2022-08-01T05:58:51;101135.72;;;19.00;86.65
73558;BME280;61829;53.286;10.434;2022-08-01T06:01:18;101146.16;;;19.03;86.88
73558;BME280;61829;53.286;10.434;2022-08-01T06:03:44;101142.38;;;19.04;86.15
73558;BME280;61829;53.286;10.434;2022-08-01T06:06:11;101143.19;;;19.04;86.27
73558;BME280;61829;53.286;10.434;2022-08-01T06:08:37;101146.75;;;19.05;85.69
73558;BME280;61829;53.286;10.434;2022-08-01T06:11:03;101148.44;;;19.06;85.69
73558;BME280;61829;53.286;10.434;2022-08-01T06:13:29;101149.03;;;19.08;85.62
73558;BME280;61829;53.286;10.434;2022-08-01T06:15:55;101153.19;;;19.11;85.91
73558;BME280;61829;53.286;10.434;2022-08-01T06:18:21;101146.31;;;19.08;86.15
73558;BME280;61829;53.286;10.434;2022-08-01T06:20:47;101147.13;;;19.09;85.58
73558;BME280;61829;53.286;10.434;2022-08-01T06:23:13;101155.34;;;19.09;85.55
73558;BME280;61829;53.286;10.434;2022-08-01T06:25:42;101160.41;;;19.05;85.65
73558;BME280;61829;53.286;10.434;2022-08-01T06:28:09;101165.28;;;19.03;85.10
73558;BME280;61829;53.286;10.434;2022-08-01T06:30:35;101160.88;;;19.02;84.98
73558;BME280;61829;53.286;10.434;2022-08-01T06:33:02;101166.81;;;18.99;85.38
73558;BME280;61829;53.286;10.434;2022-08-01T06:35:28;101163.50;;;18.97;85.30
73558;BME280;61829;53.286;10.434;2022-08-01T06:37:56;101170.00;;;18.96;85.95
73558;BME280;61829;53.286;10.434;2022-08-01T06:40:22;101171.91;;;18.95;85.81
73558;BME280;61829;53.286;10.434;2022-08-01T06:42:49;101173.44;;;18.91;85.44
73558;BME280;61829;53.286;10.434;2022-08-01T06:45:15;101175.09;;;18.92;85.29
73558;BME280;61829;53.286;10.434;2022-08-01T06:47:43;101176.19;;;18.91;85.91
73558;BME280;61829;53.286;10.434;2022-08-01T06:50:10;101175.25;;;18.97;85.78
73558;BME280;61829;53.286;10.434;2022-08-01T06:52:36;101181.22;;;19.06;86.34
73558;BME280;61829;53.286;10.434;2022-08-01T06:55:03;101185.75;;;19.12;86.48
73558;BME280;61829;53.286;10.434;2022-08-01T06:57:30;101178.97;;;19.15;85.59
73558;BME280;61829;53.286;10.434;2022-08-01T06:59:56;101185.06;;;19.17;84.88
73558;BME280;61829;53.286;10.434;2022-08-01T07:02:22;101180.16;;;19.19;84.64
73558;BME280;61829;53.286;10.434;2022-08-01T07:04:49;101179.94;;;19.20;84.12
73558;BME280;61829;53.286;10.434;2022-08-01T07:07:15;101191.00;;;19.25;84.42
73558;BME280;61829;53.286;10.434;2022-08-01T07:09:40;101188.41;;;19.31;85.35
73558;BME280;61829;53.286;10.434;2022-08-01T07:12:08;101194.47;;;19.33;85.08
73558;BME280;61829;53.286;10.434;2022-08-01T07:14:34;101192.19;;;19.29;84.29
73558;BME280;61829;53.286;10.434;2022-08-01T07:17:00;101193.28;;;19.28;83.84
73558;BME280;61829;53.286;10.434;2022-08-01T07:19:27;101198.13;;;19.26;83.99
73558;BME280;61829;53.286;10.434;2022-08-01T07:21:53;101195.72;;;19.18;83.27
73558;BME280;61829;53.286;10.434;2022-08-01T07:24:19;101202.13;;;19.12;82.84
73558;BME280;61829;53.286;10.434;2022-08-01T07:26:48;101202.75;;;19.14;83.74
73558;BME280;61829;53.286;10.434;2022-08-01T07:29:14;101201.06;;;19.13;83.42
73558;BME280;61829;53.286;10.434;2022-08-01T07:31:40;101206.06;;;19.16;83.54
73558;BME280;61829;53.286;10.434;2022-08-01T07:34:07;101205.16;;;19.22;84.23
73558;BME280;61829;53.286;10.434;2022-08-01T07:36:33;101211.94;;;19.32;84.20
73558;BME280;61829;53.286;10.434;2022-08-01T07:38:59;101209.56;;;19.35;83.78
73558;BME280;61829;53.286;10.434;2022-08-01T07:41:25;101215.31;;;19.45;83.63
73558;BME280;61829;53.286;10.434;2022-08-01T07:43:51;101218.41;;;19.61;83.82
73558;BME280;61829;53.286;10.434;2022-08-01T07:46:16;101218.69;;;19.71;82.78
73558;BME280;61829;53.286;10.434;2022-08-01T07:48:44;101224.06;;;19.78;82.76
73558;BME280;61829;53.286;10.434;2022-08-01T07:51:09;101228.44;;;19.79;80.88
73558;BME280;61829;53.286;10.434;2022-08-01T07:53:36;101230.72;;;19.82;81.46
73558;BME280;61829;53.286;10.434;2022-08-01T07:56:03;101235.72;;;19.85;80.87
73558;BME280;61829;53.286;10.434;2022-08-01T07:58:33;101238.34;;;19.91;80.48
73558;BME280;61829;53.286;10.434;2022-08-01T08:00:59;101235.59;;;20.03;80.70
73558;BME280;61829;53.286;10.434;2022-08-01T08:03:26;101246.06;;;20.06;80.57
73558;BME280;61829;53.286;10.434;2022-08-01T08:05:52;101247.38;;;20.04;80.53
73558;BME280;61829;53.286;10.434;2022-08-01T08:08:18;101257.75;;;20.02;79.32
73558;BME280;61829;53.286;10.434;2022-08-01T08:10:45;101263.69;;;19.99;78.84
73558;BME280;61829;53.286;10.434;2022-08-01T08:13:10;101264.13;;;19.95;78.33
73558;BME280;61829;53.286;10.434;2022-08-01T08:15:36;101271.28;;;19.96;78.87
73558;BME280;61829;53.286;10.434;2022-08-01T08:18:03;101257.13;;;20.00;79.55
73558;BME280;61829;53.286;10.434;2022-08-01T08:20:29;101253.78;;;20.09;80.01
73558;BME280;61829;53.286;10.434;2022-08-01T08:22:56;101254.25;;;20.18;79.24
73558;BME280;61829;53.286;10.434;2022-08-01T08:25:25;101263.06;;;20.32;79.08
73558;BME280;61829;53.286;10.434;2022-08-01T08:27:52;101260.31;;;20.44;78.18
73558;BME280;61829;53.286;10.434;2022-08-01T08:30:18;101265.69;;;20.50;77.17
73558;BME280;61829;53.286;10.434;2022-08-01T08:32:44;101269.41;;;20.56;76.21
73558;BME280;61829;53.286;10.434;2022-08-01T08:35:10;101276.63;;;20.50;75.96
73558;BME280;61829;53.286;10.434;2022-08-01T08:37:37;101267.81;;;20.48;76.84
73558;BME280;61829;53.286;10.434;2022-08-01T08:40:04;101276.53;;;20.57;76.65
73558;BME280;61829;53.286;10.434;2022-08-01T08:42:31;101272.47;;;20.59;75.96
73558;BME280;61829;53.286;10.434;2022-08-01T08:44:57;101277.97;;;20.59;76.56
73558;BME280;61829;53.286;10.434;2022-08-01T08:47:25;101276.38;;;20.63;75.80
73558;BME280;61829;53.286;10.434;2022-08-01T08:49:55;101279.38;;;20.62;75.54
73558;BME280;61829;53.286;10.434;2022-08-01T08:52:22;101277.72;;;20.61;75.52
73558;BME280;61829;53.286;10.434;2022-08-01T08:54:52;101287.59;;;20.62;76.37
73558;BME280;61829;53.286;10.434;2022-08-01T08:57:20;101286.41;;;20.58;76.37
73558;BME280;61829;53.286;10.434;2022-08-01T08:59:47;101291.53;;;20.54;75.21
73558;BME280;61829;53.286;10.434;2022-08-01T09:02:14;101289.25;;;20.51;75.50
73558;BME280;61829;53.286;10.434;2022-08-01T09:04:40;101298.91;;;20.54;74.34
73558;BME280;61829;53.286;10.434;2022-08-01T09:07:07;101304.16;;;20.55;74.38
73558;BME280;61829;53.286;10.434;2022-08-01T09:09:34;101318.22;;;20.59;74.25
73558;BME280;61829;53.286;10.434;2022-08-01T09:12:00;101309.25;;;20.63;73.80
73558;BME280;61829;53.286;10.434;2022-08-01T09:14:27;101321.16;;;20.69;74.37
73558;BME280;61829;53.286;10.434;2022-08-01T09:17:05;101330.09;;;20.76;73.55
73558;BME280;61829;53.286;10.434;2022-08-01T09:19:43;101328.31;;;20.70;73.69
73558;BME280;61829;53.286;10.434;2022-08-01T09:22:12;101324.75;;;20.70;72.90
73558;BME280;61829;53.286;10.434;2022-08-01T09:24:38;101333.53;;;20.72;73.42
73558;BME280;61829;53.286;10.434;2022-08-01T09:27:20;101345.91;;;20.86;73.06
73558;BME280;61829;53.286;10.434;2022-08-01T09:29:46;101344.56;;;21.00;73.13
73558;BME280;61829;53.286;10.434;2022-08-01T09:32:12;101336.81;;;21.09;72.18
73558;BME280;61829;53.286;10.434;2022-08-01T09:34:39;101337.66;;;21.10;70.39
73558;BME280;61829;53.286;10.434;2022-08-01T09:37:05;101343.25;;;21.03;71.46
73558;BME280;61829;53.286;10.434;2022-08-01T09:39:32;101344.00;;;20.98;71.22
73558;BME280;61829;53.286;10.434;2022-08-01T09:42:01;101345.44;;;20.89;70.66
73558;BME280;61829;53.286;10.434;2022-08-01T09:44:44;101347.31;;;20.89;69.87
73558;BME280;61829;53.286;10.434;2022-08-01T09:47:12;101351.63;;;20.96;71.30
73558;BME280;61829;53.286;10.434;2022-08-01T09:49:40;101355.44;;;20.95;71.47
73558;BME280;61829;53.286;10.434;2022-08-01T09:52:14;101363.41;;;20.85;70.24
73558;BME280;61829;53.286;10.434;2022-08-01T09:54:42;101364.88;;;20.76;70.08
73558;BME280;61829;53.286;10.434;2022-08-01T09:57:16;101364.75;;;20.71;69.37
73558;BME280;61829;53.286;10.434;2022-08-01T09:59:49;101377.25;;;20.78;70.33
73558;BME280;61829;53.286;10.434;2022-08-01T10:05:03;101378.03;;;21.02;68.06
73558;BME280;61829;53.286;10.434;2022-08-01T10:07:30;101376.72;;;21.05;67.35
73558;BME280;61829;53.286;10.434;2022-08-01T10:10:09;101373.84;;;21.12;66.31
73558;BME280;61829;53.286;10.434;2022-08-01T10:12:38;101378.59;;;21.28;65.38
73558;BME280;61829;53.286;10.434;2022-08-01T10:15:06;101371.88;;;21.47;64.84
73558;BME280;61829;53.286;10.434;2022-08-01T10:17:33;101382.84;;;21.76;65.83
73558;BME280;61829;53.286;10.434;2022-08-01T10:20:02;101382.47;;;22.01;63.41
73558;BME280;61829;53.286;10.434;2022-08-01T10:22:30;101385.75;;;22.15;62.37
73558;BME280;61829;53.286;10.434;2022-08-01T10:24:56;101388.34;;;22.22;60.90
73558;BME280;61829;53.286;10.434;2022-08-01T10:27:25;101380.47;;;22.42;59.46
73558;BME280;61829;53.286;10.434;2022-08-01T10:29:59;101385.91;;;22.59;60.69
73558;BME280;61829;53.286;10.434;2022-08-01T10:32:35;101391.34;;;22.93;58.87
73558;BME280;61829;53.286;10.434;2022-08-01T10:35:03;101392.44;;;23.08;56.42
73558;BME280;61829;53.286;10.434;2022-08-01T10:37:29;101390.38;;;23.21;56.01
73558;BME280;61829;53.286;10.434;2022-08-01T10:39:56;101388.81;;;23.52;54.28
73558;BME280;61829;53.286;10.434;2022-08-01T10:42:22;101387.75;;;23.75;54.73
73558;BME280;61829;53.286;10.434;2022-08-01T10:44:49;101387.19;;;24.05;53.59
73558;BME280;61829;53.286;10.434;2022-08-01T10:47:46;101389.84;;;24.22;52.85
73558;BME280;61829;53.286;10.434;2022-08-01T10:50:33;101393.75;;;24.31;52.21
73558;BME280;61829;53.286;10.434;2022-08-01T10:53:11;101389.56;;;24.56;51.10
73558;BME280;61829;53.286;10.434;2022-08-01T10:55:50;101385.75;;;24.62;51.24
73558;BME280;61829;53.286;10.434;2022-08-01T10:58:33;101379.91;;;24.53;49.53
73558;BME280;61829;53.286;10.434;2022-08-01T11:03:45;101377.38;;;24.89;52.22
73558;BME280;61829;53.286;10.434;2022-08-01T11:06:25;101390.44;;;25.09;51.51
73558;BME280;61829;53.286;10.434;2022-08-01T11:08:54;101382.56;;;25.33;51.65
73558;BME280;61829;53.286;10.434;2022-08-01T11:11:21;101388.19;;;25.53;50.19
73558;BME280;61829;53.286;10.434;2022-08-01T11:16:41;101377.06;;;25.33;51.15
73558;BME280;61829;53.286;10.434;2022-08-01T11:19:08;101392.47;;;25.24;50.51
73558;BME280;61829;53.286;10.434;2022-08-01T11:29:43;101408.59;;;25.58;48.83
73558;BME280;61829;53.286;10.434;2022-08-01T11:32:25;101406.59;;;25.38;48.19
73558;BME280;61829;53.286;10.434;2022-08-01T11:34:53;101410.50;;;25.52;48.88
73558;BME280;61829;53.286;10.434;2022-08-01T11:37:28;101406.66;;;25.58;48.59
73558;BME280;61829;53.286;10.434;2022-08-01T11:40:23;101406.72;;;25.73;48.21
73558;BME280;61829;53.286;10.434;2022-08-01T11:43:16;101403.44;;;25.87;46.03
73558;BME280;61829;53.286;10.434;2022-08-01T11:46:01;101400.41;;;25.83;45.22
73558;BME280;61829;53.286;10.434;2022-08-01T11:48:27;101410.38;;;25.94;46.54
73558;BME280;61829;53.286;10.434;2022-08-01T11:50:57;101404.31;;;26.08;44.83
73558;BME280;61829;53.286;10.434;2022-08-01T11:53:23;101404.88;;;26.20;44.65
73558;BME280;61829;53.286;10.434;2022-08-01T11:55:53;101399.09;;;26.22;43.64
73558;BME280;61829;53.286;10.434;2022-08-01T11:58:25;101401.81;;;26.27;44.05
73558;BME280;61829;53.286;10.434;2022-08-01T12:00:56;101406.53;;;26.41;42.31
73558;BME280;61829;53.286;10.434;2022-08-01T12:03:28;101402.09;;;26.46;40.67
73558;BME280;61829;53.286;10.434;2022-08-01T12:05:55;101398.81;;;26.64;42.53
73558;BME280;61829;53.286;10.434;2022-08-01T12:08:31;101402.91;;;26.87;41.60
73558;BME280;61829;53.286;10.434;2022-08-01T12:11:05;101397.88;;;27.04;40.89
73558;BME280;61829;53.286;10.434;2022-08-01T12:13:41;101411.16;;;26.97;41.49
73558;BME280;61829;53.286;10.434;2022-08-01T12:16:10;101407.31;;;26.83;41.83
73558;BME280;61829;53.286;10.434;2022-08-01T12:18:43;101411.50;;;26.75;40.79
73558;BME280;61829;53.286;10.434;2022-08-01T12:21:09;101401.53;;;26.79;40.49
73558;BME280;61829;53.286;10.434;2022-08-01T12:23:35;101412.53;;;26.95;40.02
73558;BME280;61829;53.286;10.434;2022-08-01T12:26:01;101418.69;;;26.86;40.53
73558;BME280;61829;53.286;10.434;2022-08-01T12:28:29;101415.38;;;26.69;38.17
73558;BME280;61829;53.286;10.434;2022-08-01T12:30:55;101408.75;;;26.70;38.88
73558;BME280;61829;53.286;10.434;2022-08-01T12:33:21;101416.47;;;26.63;38.86
73558;BME280;61829;53.286;10.434;2022-08-01T12:35:47;101411.25;;;26.61;39.66
73558;BME280;61829;53.286;10.434;2022-08-01T12:38:19;101403.22;;;26.65;40.62
73558;BME280;61829;53.286;10.434;2022-08-01T12:40:48;101413.16;;;26.71;40.76
73558;BME280;61829;53.286;10.434;2022-08-01T12:43:19;101404.03;;;26.76;40.36
73558;BME280;61829;53.286;10.434;2022-08-01T12:45:48;101404.84;;;26.86;39.32
73558;BME280;61829;53.286;10.434;2022-08-01T12:48:16;101414.53;;;26.63;37.54
73558;BME280;61829;53.286;10.434;2022-08-01T12:50:45;101412.59;;;26.49;36.85
73558;BME280;61829;53.286;10.434;2022-08-01T12:53:12;101407.91;;;26.39;37.81
73558;BME280;61829;53.286;10.434;2022-08-01T12:55:50;101398.81;;;26.38;40.91
73558;BME280;61829;53.286;10.434;2022-08-01T12:58:18;101405.13;;;26.49;40.24
73558;BME280;61829;53.286;10.434;2022-08-01T13:00:46;101408.19;;;26.58;40.57
73558;BME280;61829;53.286;10.434;2022-08-01T13:03:17;101410.13;;;26.73;39.99
73558;BME280;61829;53.286;10.434;2022-08-01T13:08:17;101408.75;;;26.75;39.75
73558;BME280;61829;53.286;10.434;2022-08-01T13:10:44;101414.53;;;26.79;39.33
73558;BME280;61829;53.286;10.434;2022-08-01T13:13:11;101408.19;;;26.73;39.21
73558;BME280;61829;53.286;10.434;2022-08-01T13:15:39;101402.91;;;26.72;39.02
73558;BME280;61829;53.286;10.434;2022-08-01T13:18:36;101402.66;;;26.73;38.59
73558;BME280;61829;53.286;10.434;2022-08-01T13:21:18;101415.09;;;26.65;39.65
73558;BME280;61829;53.286;10.434;2022-08-01T13:26:47;101405.97;;;26.24;40.03